Time;durP1;ratioP1;P1;durP2;ratioP2;P2;SDS_P1;SDS_P2;PMS_P1;PMS_P2;Temp;Humidity;BMP_temperature;BMP_pressure;BME280_temperature;BME280_humidity;BME280_pressure;Samples;Min_cycle;Max_cycle;Signal;HPM_P1;HPM_P2
2021/07/22 00:02:24;;;;;;;7.82;6.57;;;;;;;17.02;57.93;99200.84;5032538;28;20042;-64
2021/07/22 00:04:50;;;;;;;6.20;5.68;;;;;;;16.96;58.01;99189.84;5029738;28;20316;-65
2021/07/22 00:07:16;;;;;;;9.18;6.35;;;;;;;16.99;58.55;99195.78;5028769;28;20037;-64
2021/07/22 00:09:41;;;;;;;8.07;6.10;;;;;;;17.01;58.12;99193.97;5033188;28;20045;-64
2021/07/22 00:12:11;;;;;;;7.63;6.85;;;;;;;17.00;58.12;99192.28;5026966;28;20045;-64
2021/07/22 00:14:38;;;;;;;9.13;6.60;;;;;;;16.99;58.04;99194.91;5029369;28;20044;-64
2021/07/22 00:17:04;;;;;;;7.00;5.65;;;;;;;16.89;58.05;99184.03;5029335;28;20112;-64
2021/07/22 00:19:30;;;;;;;5.95;5.22;;;;;;;16.87;58.27;99196.22;5028029;28;20044;-64
2021/07/22 00:21:57;;;;;;;6.90;6.13;;;;;;;16.90;58.58;99180.56;5030373;28;20085;-64
2021/07/22 00:24:23;;;;;;;6.63;5.80;;;;;;;16.89;57.92;99181.44;5030168;28;20072;-64
2021/07/22 00:26:48;;;;;;;6.68;6.07;;;;;;;16.76;58.78;99186.22;5027626;28;20029;-64
2021/07/22 00:29:13;;;;;;;6.10;5.60;;;;;;;16.69;59.07;99186.47;5026162;28;20314;-64
2021/07/22 00:31:39;;;;;;;8.75;6.45;;;;;;;16.68;58.58;99184.78;5028803;28;20068;-64
2021/07/22 00:34:04;;;;;;;6.88;5.97;;;;;;;16.68;58.80;99187.38;5027664;28;20374;-64
2021/07/22 00:36:29;;;;;;;6.47;5.72;;;;;;;16.59;58.76;99180.78;5024588;28;20092;-64
2021/07/22 00:38:55;;;;;;;7.38;6.28;;;;;;;16.62;59.00;99182.44;5031898;28;20274;-65
2021/07/22 00:41:20;;;;;;;7.32;6.60;;;;;;;16.66;58.52;99179.69;5031864;28;20030;-65
2021/07/22 00:43:46;;;;;;;6.47;5.82;;;;;;;16.56;59.18;99180.00;5028190;28;20040;-65
2021/07/22 00:46:11;;;;;;;7.35;5.80;;;;;;;16.53;59.10;99180.13;5031739;28;20037;-65
2021/07/22 00:48:37;;;;;;;6.55;5.07;;;;;;;16.51;59.24;99176.75;5028292;28;20418;-64
2021/07/22 00:51:03;;;;;;;9.63;5.75;;;;;;;16.51;59.02;99180.16;5028720;28;20039;-64
2021/07/22 00:53:29;;;;;;;6.70;5.82;;;;;;;16.39;59.57;99176.25;5032668;28;20098;-64
2021/07/22 00:55:55;;;;;;;11.10;6.22;;;;;;;16.35;59.64;99172.06;5028880;28;20033;-64
2021/07/22 00:58:20;;;;;;;7.80;6.40;;;;;;;16.16;60.34;99183.94;5024587;28;20036;-64
2021/07/22 01:00:45;;;;;;;6.93;6.20;;;;;;;16.25;59.97;99169.88;5029582;28;20033;-64
2021/07/22 01:03:11;;;;;;;5.97;5.38;;;;;;;16.26;59.66;99171.53;5028973;28;20037;-64
2021/07/22 01:05:37;;;;;;;6.78;6.13;;;;;;;16.20;60.50;99170.00;5030132;28;20408;-64
2021/07/22 01:08:03;;;;;;;7.22;6.20;;;;;;;16.19;60.63;99167.47;5026342;28;20118;-64
2021/07/22 01:10:30;;;;;;;11.30;7.35;;;;;;;16.07;60.46;99160.97;5031438;28;20121;-64
2021/07/22 01:12:55;;;;;;;7.72;6.65;;;;;;;15.98;60.80;99167.28;5027001;28;20029;-64
2021/07/22 01:15:21;;;;;;;10.88;6.93;;;;;;;15.95;61.01;99172.53;5026358;28;20044;-64
2021/07/22 01:17:49;;;;;;;7.10;6.05;;;;;;;15.82;61.84;99166.09;5034856;28;20312;-64
2021/07/22 01:20:22;;;;;;;9.05;6.60;;;;;;;15.88;61.42;99170.19;5032059;28;20382;-64
2021/07/22 01:22:50;;;;;;;7.70;6.10;;;;;;;15.80;62.17;99164.41;5026099;28;20049;-64
2021/07/22 01:25:16;;;;;;;9.70;7.13;;;;;;;15.71;62.36;99173.31;5030456;28;20442;-65
2021/07/22 01:27:42;;;;;;;7.47;6.05;;;;;;;15.74;62.08;99172.38;5027324;28;20037;-64
2021/07/22 01:30:09;;;;;;;6.80;6.20;;;;;;;15.75;61.77;99174.91;5030593;28;20037;-65
2021/07/22 01:32:34;;;;;;;7.07;6.38;;;;;;;15.65;61.79;99168.34;5026441;28;20037;-65
2021/07/22 01:35:00;;;;;;;8.05;6.63;;;;;;;15.69;62.20;99171.69;5031039;28;20087;-65
2021/07/22 01:37:26;;;;;;;6.97;6.32;;;;;;;15.63;62.41;99162.34;5036222;28;20026;-64
2021/07/22 01:39:51;;;;;;;6.47;5.95;;;;;;;15.52;63.06;99167.88;5024058;28;20385;-65
2021/07/22 01:42:17;;;;;;;6.72;5.85;;;;;;;15.49;62.49;99167.91;5027932;28;20020;-64
2021/07/22 01:44:42;;;;;;;6.78;6.18;;;;;;;15.53;63.03;99169.53;5023630;28;20025;-64
2021/07/22 01:47:08;;;;;;;7.88;7.25;;;;;;;15.40;63.50;99164.78;5030020;28;20098;-64
2021/07/22 01:49:33;;;;;;;7.22;6.53;;;;;;;15.50;63.19;99161.03;5031020;28;20103;-65
2021/07/22 01:52:00;;;;;;;7.70;7.00;;;;;;;15.46;63.12;99167.16;5029380;28;20045;-64
2021/07/22 01:54:27;;;;;;;9.13;6.93;;;;;;;15.43;63.43;99167.25;5027702;28;20034;-64
2021/07/22 01:56:52;;;;;;;7.07;6.35;;;;;;;15.54;63.06;99170.38;5027966;28;20135;-63
2021/07/22 01:59:17;;;;;;;6.47;5.88;;;;;;;15.54;62.70;99167.81;5027022;28;20034;-63
2021/07/22 02:01:43;;;;;;;6.97;6.15;;;;;;;15.56;62.26;99160.88;5031310;28;20029;-64
2021/07/22 02:04:09;;;;;;;8.15;6.13;;;;;;;15.61;62.78;99166.75;5026454;28;20025;-64
2021/07/22 02:06:34;;;;;;;7.90;6.97;;;;;;;15.71;61.94;99159.53;5027853;28;20113;-64
2021/07/22 02:09:00;;;;;;;8.48;6.35;;;;;;;15.75;61.27;99164.56;5027126;28;20410;-64
2021/07/22 02:11:25;;;;;;;6.97;6.28;;;;;;;15.77;61.56;99159.34;5024483;28;20139;-64
2021/07/22 02:13:50;;;;;;;6.88;6.18;;;;;;;15.83;61.22;99164.31;5028051;28;20078;-64
2021/07/22 02:16:16;;;;;;;6.28;5.68;;;;;;;15.84;61.22;99164.28;5028935;28;20107;-63
2021/07/22 02:18:41;;;;;;;7.65;6.85;;;;;;;15.89;61.26;99171.88;5026392;28;20021;-64
2021/07/22 02:21:08;;;;;;;14.18;6.55;;;;;;;15.94;60.79;99170.84;5028916;28;20278;-64
2021/07/22 02:23:34;;;;;;;6.55;5.88;;;;;;;15.89;60.94;99166.72;5029600;28;20054;-63
2021/07/22 02:26:07;;;;;;;6.75;5.97;;;;;;;15.88;61.23;99171.03;5029660;28;20037;-64
2021/07/22 02:28:32;;;;;;;9.45;6.78;;;;;;;15.80;61.41;99167.00;5026396;28;20038;-64
2021/07/22 02:30:58;;;;;;;7.30;6.65;;;;;;;15.81;60.78;99169.56;5027479;28;20097;-64
2021/07/22 02:33:24;;;;;;;7.70;6.47;;;;;;;15.76;61.33;99163.69;5029633;28;20088;-64
2021/07/22 02:35:49;;;;;;;7.32;6.10;;;;;;;15.71;61.65;99169.88;5028107;28;20053;-64
2021/07/22 02:38:15;;;;;;;7.60;6.60;;;;;;;15.68;61.88;99162.22;5025244;28;20111;-63
2021/07/22 02:40:40;;;;;;;7.13;6.45;;;;;;;15.62;62.47;99159.81;5024643;28;20135;-64
2021/07/22 02:43:06;;;;;;;7.65;6.72;;;;;;;15.64;61.91;99169.22;5024408;28;20040;-63
2021/07/22 02:45:32;;;;;;;8.23;6.15;;;;;;;15.51;62.77;99161.00;5027153;28;20041;-63
2021/07/22 02:47:57;;;;;;;7.00;6.38;;;;;;;15.44;62.80;99161.22;5032663;28;20104;-63
2021/07/22 02:50:23;;;;;;;7.35;6.78;;;;;;;15.42;62.69;99168.16;5026656;28;20075;-64
2021/07/22 02:52:48;;;;;;;8.15;6.45;;;;;;;15.34;63.04;99165.81;5025340;28;20290;-63
2021/07/22 02:55:14;;;;;;;7.68;6.35;;;;;;;15.28;63.51;99171.13;5027728;28;20063;-64
2021/07/22 02:57:40;;;;;;;7.10;6.22;;;;;;;15.40;63.04;99169.94;5027350;28;20389;-63
2021/07/22 03:00:06;;;;;;;7.05;6.35;;;;;;;15.48;62.80;99168.81;5031689;28;20029;-64
2021/07/22 03:02:32;;;;;;;8.88;6.22;;;;;;;15.48;62.15;99161.06;5025204;28;20033;-63
2021/07/22 03:04:57;;;;;;;7.05;6.35;;;;;;;15.47;62.36;99161.09;5027219;28;20037;-63
2021/07/22 03:07:23;;;;;;;7.32;6.40;;;;;;;15.39;62.56;99166.50;5027154;28;20120;-64
2021/07/22 03:09:49;;;;;;;7.43;6.47;;;;;;;15.42;62.53;99165.56;5027771;28;20155;-63
2021/07/22 03:12:15;;;;;;;11.02;6.75;;;;;;;15.47;62.31;99167.13;5030926;28;20022;-63
2021/07/22 03:14:40;;;;;;;7.35;6.65;;;;;;;15.42;62.65;99163.81;5030161;28;20778;-63
2021/07/22 03:17:06;;;;;;;7.35;6.28;;;;;;;15.30;63.28;99166.78;5027509;28;20073;-64
2021/07/22 03:19:31;;;;;;;8.38;6.30;;;;;;;15.25;63.63;99163.47;5029284;28;20037;-64
2021/07/22 03:21:56;;;;;;;6.80;6.20;;;;;;;15.16;63.93;99158.56;5030271;28;20424;-65
2021/07/22 03:24:22;;;;;;;8.52;6.45;;;;;;;15.09;65.37;99159.66;5027512;28;20064;-62
2021/07/22 03:26:47;;;;;;;8.93;6.70;;;;;;;15.05;66.14;99168.38;5028445;28;20028;-62
2021/07/22 03:29:13;;;;;;;10.85;7.25;;;;;;;15.00;65.20;99168.50;5026684;28;20038;-63
2021/07/22 03:31:38;;;;;;;7.70;6.93;;;;;;;14.97;66.65;99163.44;5029390;28;20029;-64
2021/07/22 03:34:03;;;;;;;9.70;6.95;;;;;;;15.01;66.59;99166.78;5031538;28;20112;-64
2021/07/22 03:36:29;;;;;;;9.35;6.47;;;;;;;14.97;66.43;99163.44;5031442;28;20036;-64
2021/07/22 03:38:54;;;;;;;7.05;6.38;;;;;;;14.95;67.02;99169.50;5029861;28;20037;-64
2021/07/22 03:41:22;;;;;;;6.90;6.32;;;;;;;14.86;66.97;99172.34;5028822;28;20035;-63
2021/07/22 03:43:48;;;;;;;9.93;7.68;;;;;;;14.87;65.80;99172.31;5031598;28;20067;-64
2021/07/22 03:46:13;;;;;;;8.02;6.60;;;;;;;14.84;66.56;99171.56;5028868;28;20334;-64
2021/07/22 03:48:39;;;;;;;7.57;6.85;;;;;;;14.80;67.06;99169.97;5029263;28;20306;-64
2021/07/22 03:51:04;;;;;;;6.60;5.82;;;;;;;14.82;67.87;99181.91;5024675;28;20070;-64
2021/07/22 03:53:29;;;;;;;7.50;6.80;;;;;;;14.86;67.53;99180.94;5032343;28;20037;-63
2021/07/22 03:55:56;;;;;;;10.20;7.82;;;;;;;14.93;67.31;99179.06;5029781;28;20103;-64
2021/07/22 03:58:21;;;;;;;7.85;7.05;;;;;;;14.93;67.54;99181.63;5031184;28;20040;-64
2021/07/22 04:00:47;;;;;;;7.82;7.13;;;;;;;15.02;66.47;99187.38;5035597;28;20275;-63
2021/07/22 04:03:12;;;;;;;9.35;6.93;;;;;;;15.05;66.87;99186.47;5031470;28;20036;-63
2021/07/22 04:05:37;;;;;;;8.02;6.32;;;;;;;15.17;67.08;99185.25;5032717;28;20270;-63
2021/07/22 04:08:03;;;;;;;7.47;6.78;;;;;;;15.23;66.13;99188.53;5035548;28;20048;-64
2021/07/22 04:10:29;;;;;;;8.38;7.03;;;;;;;15.33;66.48;99192.53;5031172;28;20278;-63
2021/07/22 04:13:01;;;;;;;7.10;6.50;;;;;;;15.47;65.51;99195.56;5031102;28;20433;-64
2021/07/22 04:15:29;;;;;;;7.03;6.32;;;;;;;15.59;65.61;99196.94;5028689;28;20048;-62
2021/07/22 04:17:55;;;;;;;9.77;6.68;;;;;;;15.68;65.40;99198.41;5027985;28;20088;-63
2021/07/22 04:20:23;;;;;;;7.88;6.97;;;;;;;15.82;63.95;99199.69;5029312;28;20064;-63
2021/07/22 04:22:49;;;;;;;6.90;6.30;;;;;;;15.88;64.19;99203.81;5030918;28;20429;-63
2021/07/22 04:25:15;;;;;;;7.20;6.55;;;;;;;15.94;63.77;99196.72;5032473;28;20036;-63
2021/07/22 04:27:41;;;;;;;7.15;6.45;;;;;;;16.06;63.17;99200.66;5026003;28;20060;-63
2021/07/22 04:30:07;;;;;;;7.07;6.47;;;;;;;16.14;64.00;99193.47;5030529;28;20044;-64
2021/07/22 04:32:32;;;;;;;8.60;6.95;;;;;;;16.12;63.42;99197.03;5031575;28;20589;-64
2021/07/22 04:34:58;;;;;;;7.75;6.95;;;;;;;16.14;63.16;99198.66;5028095;28;20037;-63
2021/07/22 04:37:23;;;;;;;9.48;7.28;;;;;;;16.15;63.04;99202.09;5030269;28;20038;-63
2021/07/22 04:39:48;;;;;;;7.90;7.10;;;;;;;16.17;63.28;99201.13;5027209;28;20041;-63
2021/07/22 04:42:14;;;;;;;7.38;6.65;;;;;;;16.21;62.66;99200.13;5031300;28;20628;-63
2021/07/22 04:44:39;;;;;;;9.07;6.95;;;;;;;16.25;62.34;99199.16;5030129;28;20030;-63
2021/07/22 04:47:05;;;;;;;9.18;6.90;;;;;;;16.32;62.63;99205.84;5028083;28;20299;-63
2021/07/22 04:49:30;;;;;;;11.18;7.75;;;;;;;16.39;62.81;99204.72;5033002;28;20426;-64
2021/07/22 04:51:59;;;;;;;7.72;6.70;;;;;;;16.54;62.78;99202.53;5028958;28;20079;-63
2021/07/22 04:54:24;;;;;;;7.40;6.65;;;;;;;16.57;61.97;99203.28;5029495;28;20037;-64
2021/07/22 04:56:50;;;;;;;6.40;5.82;;;;;;;16.73;61.69;99199.28;5029088;28;20041;-64
2021/07/22 04:59:16;;;;;;;9.30;6.53;;;;;;;16.85;61.39;99203.16;5033513;28;20420;-63
2021/07/22 05:01:41;;;;;;;7.60;6.00;;;;;;;17.03;61.49;99197.34;5027585;28;20668;-63
2021/07/22 05:04:07;;;;;;;9.85;6.03;;;;;;;17.16;60.79;99198.59;5031088;28;20038;-64
2021/07/22 05:06:33;;;;;;;10.10;6.20;;;;;;;17.27;59.57;99201.63;5030347;28;20408;-63
2021/07/22 05:08:59;;;;;;;6.68;5.90;;;;;;;17.37;59.99;99194.38;5030483;28;20041;-63
2021/07/22 05:11:25;;;;;;;6.57;5.88;;;;;;;17.53;59.47;99202.41;5025219;28;20050;-63
2021/07/22 05:13:50;;;;;;;7.55;6.85;;;;;;;17.57;60.28;99199.63;5026316;28;20037;-64
2021/07/22 05:16:16;;;;;;;10.13;7.45;;;;;;;17.65;60.78;99204.59;5030682;28;20043;-63
2021/07/22 05:18:41;;;;;;;10.27;6.20;;;;;;;17.70;59.63;99215.59;5025442;28;20441;-64
2021/07/22 05:21:07;;;;;;;9.45;6.40;;;;;;;17.74;59.13;99211.97;5029633;28;20029;-64
2021/07/22 05:23:33;;;;;;;6.72;6.07;;;;;;;17.95;59.75;99212.94;5028657;28;20345;-64
2021/07/22 05:26:03;;;;;;;8.07;5.97;;;;;;;18.14;58.20;99219.91;5026755;28;20098;-64
2021/07/22 05:28:29;;;;;;;9.70;6.72;;;;;;;18.28;57.07;99214.16;5026646;28;20040;-63
2021/07/22 05:30:54;;;;;;;8.05;5.88;;;;;;;18.46;56.26;99215.97;5023108;28;20034;-65
2021/07/22 05:33:19;;;;;;;8.18;5.57;;;;;;;18.52;56.24;99217.50;5030591;28;20033;-63
2021/07/22 05:35:45;;;;;;;7.65;6.15;;;;;;;18.62;55.57;99218.84;5031770;28;20071;-64
2021/07/22 05:38:10;;;;;;;7.95;6.63;;;;;;;18.35;56.41;99227.72;5026304;28;20034;-63
2021/07/22 05:40:36;;;;;;;7.00;6.30;;;;;;;18.57;56.14;99215.59;5031580;28;20021;-63
2021/07/22 05:43:01;;;;;;;7.63;6.88;;;;;;;18.52;56.07;99217.50;5033003;28;20048;-63
2021/07/22 05:45:26;;;;;;;8.48;6.53;;;;;;;18.60;55.82;99211.09;5030040;28;20299;-63
2021/07/22 05:47:52;;;;;;;7.25;6.60;;;;;;;18.65;56.00;99216.94;5027686;28;20107;-65
2021/07/22 05:50:17;;;;;;;7.90;6.75;;;;;;;18.89;55.17;99215.03;5028643;28;20291;-64
2021/07/22 05:52:43;;;;;;;8.80;6.68;;;;;;;18.89;55.50;99211.59;5029396;28;20028;-64
2021/07/22 05:55:09;;;;;;;7.07;6.43;;;;;;;19.04;55.31;99205.75;5028657;28;20116;-64
2021/07/22 05:57:37;;;;;;;8.13;6.72;;;;;;;19.44;54.33;99215.22;5026815;28;20079;-65
2021/07/22 06:00:05;;;;;;;8.07;6.25;;;;;;;19.55;53.28;99207.78;5031896;28;20051;-65
2021/07/22 06:02:30;;;;;;;8.80;6.80;;;;;;;19.57;53.45;99211.16;5024170;28;20033;-63
2021/07/22 06:04:55;;;;;;;6.93;6.32;;;;;;;19.66;53.00;99210.72;5028095;28;20349;-63
2021/07/22 06:07:21;;;;;;;7.82;6.45;;;;;;;19.70;53.33;99206.22;5030431;28;20678;-64
2021/07/22 06:09:46;;;;;;;7.05;6.35;;;;;;;19.69;52.75;99205.38;5026177;28;20060;-65
2021/07/22 06:12:12;;;;;;;7.93;6.90;;;;;;;19.65;53.09;99203.81;5026361;28;20049;-64
2021/07/22 06:14:37;;;;;;;7.93;6.30;;;;;;;19.92;52.67;99209.50;5027472;28;20080;-64
2021/07/22 06:17:03;;;;;;;7.68;6.45;;;;;;;20.16;51.82;99204.88;5027997;28;20017;-63
2021/07/22 06:19:32;;;;;;;7.20;6.32;;;;;;;19.96;52.14;99203.22;5026249;28;20022;-63
2021/07/22 06:21:57;;;;;;;6.50;5.88;;;;;;;20.14;51.80;99207.56;5023859;28;20070;-64
2021/07/22 06:24:23;;;;;;;7.22;6.53;;;;;;;20.02;52.44;99197.75;5026239;28;20049;-64
2021/07/22 06:26:48;;;;;;;7.82;6.20;;;;;;;20.20;51.99;99196.00;5027106;28;20084;-64
2021/07/22 06:29:14;;;;;;;6.90;6.22;;;;;;;20.31;51.84;99204.16;5026487;28;20029;-64
2021/07/22 06:31:39;;;;;;;9.35;6.22;;;;;;;20.37;51.44;99199.47;5027680;28;20052;-64
2021/07/22 06:34:04;;;;;;;6.47;5.88;;;;;;;20.49;50.89;99192.84;5028446;28;20041;-64
2021/07/22 06:36:30;;;;;;;7.07;6.25;;;;;;;20.62;50.93;99196.50;5027080;28;20131;-64
2021/07/22 06:38:55;;;;;;;7.15;6.40;;;;;;;20.78;49.45;99200.03;5026858;28;20036;-64
2021/07/22 06:41:21;;;;;;;7.88;6.93;;;;;;;20.98;49.42;99192.00;5029489;28;20025;-64
2021/07/22 06:43:47;;;;;;;6.40;5.75;;;;;;;21.10;48.75;99192.28;5025149;28;20033;-64
2021/07/22 06:46:13;;;;;;;10.23;6.93;;;;;;;21.08;48.38;99188.91;5026097;28;20071;-64
2021/07/22 06:48:38;;;;;;;8.82;6.18;;;;;;;21.08;48.59;99196.75;5029205;28;20115;-64
2021/07/22 06:51:06;;;;;;;6.93;6.30;;;;;;;21.18;48.82;99195.34;5032773;28;20115;-64
2021/07/22 06:53:31;;;;;;;8.80;6.00;;;;;;;21.43;48.27;99191.34;5029448;28;20383;-64
2021/07/22 06:55:57;;;;;;;6.63;6.00;;;;;;;21.51;47.72;99193.56;5028427;28;20404;-64
2021/07/22 06:58:22;;;;;;;6.57;5.95;;;;;;;21.44;47.99;99192.19;5025338;28;20025;-64
2021/07/22 07:00:48;;;;;;;7.00;6.22;;;;;;;21.78;48.00;99191.19;5025730;28;20040;-64
2021/07/22 07:03:13;;;;;;;19.05;6.97;;;;;;;21.73;47.95;99188.81;5028979;28;20043;-64
2021/07/22 07:05:39;;;;;;;6.47;5.90;;;;;;;21.79;47.64;99183.28;5027367;28;20515;-65
2021/07/22 07:08:05;;;;;;;11.05;5.82;;;;;;;21.91;47.59;99191.34;5026570;28;20045;-64
2021/07/22 07:10:30;;;;;;;7.72;6.10;;;;;;;22.05;47.00;99191.44;5033293;28;20029;-64
2021/07/22 07:12:57;;;;;;;6.15;5.65;;;;;;;22.16;46.96;99186.44;5027477;28;20136;-65
2021/07/22 07:15:23;;;;;;;7.75;5.25;;;;;;;22.10;47.02;99184.19;5029496;28;20386;-65
2021/07/22 07:17:49;;;;;;;6.03;5.45;;;;;;;21.96;47.16;99171.91;5029225;28;20350;-64
2021/07/22 07:20:14;;;;;;;7.05;6.32;;;;;;;22.20;46.89;99182.72;5033165;28;20025;-64
2021/07/22 07:22:40;;;;;;;6.82;5.70;;;;;;;22.38;45.96;99186.06;5036401;28;20489;-65
2021/07/22 07:25:06;;;;;;;7.20;6.50;;;;;;;22.42;46.49;99182.31;5029897;28;20042;-65
2021/07/22 07:27:32;;;;;;;6.88;5.43;;;;;;;22.49;45.99;99181.88;5031966;28;20323;-65
2021/07/22 07:29:57;;;;;;;7.78;5.78;;;;;;;22.55;46.56;99178.91;5027878;28;20110;-65
2021/07/22 07:32:23;;;;;;;6.88;6.13;;;;;;;22.58;46.53;99178.72;5029599;28;20078;-66
2021/07/22 07:34:48;;;;;;;6.53;5.90;;;;;;;22.60;45.54;99176.03;5029063;28;20390;-65
2021/07/22 07:37:14;;;;;;;6.07;5.47;;;;;;;22.63;45.77;99181.06;5029546;28;20033;-64
2021/07/22 07:39:39;;;;;;;8.15;6.43;;;;;;;22.67;45.43;99183.41;5026525;28;20359;-64
2021/07/22 07:42:05;;;;;;;7.07;6.22;;;;;;;22.63;45.56;99181.06;5028140;28;20053;-65
2021/07/22 07:44:30;;;;;;;6.30;5.70;;;;;;;22.83;45.54;99180.75;5030881;28;20348;-64
2021/07/22 07:46:56;;;;;;;6.85;5.60;;;;;;;22.91;45.29;99175.06;5032523;28;20075;-64
2021/07/22 07:49:21;;;;;;;6.60;5.85;;;;;;;22.87;45.03;99171.81;5030556;28;21428;-64
2021/07/22 07:51:46;;;;;;;8.05;5.90;;;;;;;22.93;44.30;99175.81;5029212;28;20295;-64
2021/07/22 07:54:12;;;;;;;6.22;5.45;;;;;;;23.06;44.24;99168.91;5029346;28;20033;-64
2021/07/22 07:56:38;;;;;;;8.65;6.70;;;;;;;23.15;44.25;99169.19;5033570;28;20040;-64
2021/07/22 07:59:04;;;;;;;6.93;6.32;;;;;;;23.13;44.47;99165.81;5031413;28;20037;-65
2021/07/22 08:01:30;;;;;;;7.63;5.65;;;;;;;23.29;44.33;99160.50;5030340;28;20025;-64
2021/07/22 08:03:58;;;;;;;7.35;5.70;;;;;;;23.51;43.99;99171.31;5029896;28;20021;-64
2021/07/22 08:06:24;;;;;;;6.05;5.30;;;;;;;23.59;43.49;99171.66;5033070;28;20599;-64
2021/07/22 08:08:49;;;;;;;8.95;6.00;;;;;;;23.52;43.66;99162.53;5033206;28;20042;-64
2021/07/22 08:11:15;;;;;;;7.45;6.32;;;;;;;23.55;43.20;99169.34;5030771;28;20029;-64
2021/07/22 08:13:40;;;;;;;9.35;6.88;;;;;;;23.39;43.04;99168.59;5033031;28;20107;-65
2021/07/22 08:16:06;;;;;;;8.07;5.88;;;;;;;23.60;43.25;99168.09;5032488;28;20128;-65
2021/07/22 08:18:31;;;;;;;8.90;5.97;;;;;;;23.57;43.03;99163.06;5028912;28;20399;-65
2021/07/22 08:20:57;;;;;;;8.30;6.15;;;;;;;23.49;42.82;99159.25;5028101;28;20068;-64
2021/07/22 08:23:22;;;;;;;8.52;5.60;;;;;;;23.47;42.90;99161.13;5031712;28;20081;-64
2021/07/22 08:25:48;;;;;;;7.47;6.03;;;;;;;23.73;42.21;99172.56;5029673;28;20037;-64
2021/07/22 08:28:14;;;;;;;8.27;5.28;;;;;;;23.83;42.26;99166.66;5026108;28;20030;-64
2021/07/22 08:30:40;;;;;;;7.63;6.63;;;;;;;23.89;42.01;99158.38;5028351;28;20350;-64
2021/07/22 08:33:05;;;;;;;8.13;6.63;;;;;;;23.95;41.98;99155.38;5029239;28;20051;-64
2021/07/22 08:35:31;;;;;;;8.05;5.63;;;;;;;24.40;40.97;99154.13;5027342;28;20137;-64
2021/07/22 08:37:57;;;;;;;6.72;5.75;;;;;;;24.41;40.38;99154.97;5028078;28;20057;-64
2021/07/22 08:40:25;;;;;;;7.40;5.30;;;;;;;24.36;38.63;99147.41;5027420;28;20041;-65
2021/07/22 08:42:53;;;;;;;7.88;5.90;;;;;;;24.32;40.26;99159.06;5032232;28;20029;-64
2021/07/22 08:45:18;;;;;;;9.45;6.22;;;;;;;24.03;40.77;99155.72;5025993;28;20026;-64
2021/07/22 08:47:45;;;;;;;7.30;5.68;;;;;;;24.56;39.21;99140.84;5027345;28;20032;-65
2021/07/22 08:50:12;;;;;;;5.78;5.28;;;;;;;24.76;38.82;99137.69;5028852;28;20090;-64
2021/07/22 08:52:37;;;;;;;7.82;5.70;;;;;;;25.02;38.71;99144.66;5032476;28;20056;-64
2021/07/22 08:55:04;;;;;;;11.70;6.88;;;;;;;25.11;38.41;99139.69;5027436;28;20117;-64
2021/07/22 08:57:33;;;;;;;9.32;6.30;;;;;;;25.12;37.75;99133.50;5031294;28;20051;-64
2021/07/22 09:00:00;;;;;;;9.43;6.72;;;;;;;24.95;38.48;99142.56;5027482;28;20441;-64
2021/07/22 09:02:32;;;;;;;7.72;5.95;;;;;;;24.88;38.38;99146.53;5026687;28;20287;-65
2021/07/22 09:05:00;;;;;;;9.45;6.68;;;;;;;24.70;39.02;99142.50;5025518;28;20076;-65
2021/07/22 09:07:27;;;;;;;6.90;6.20;;;;;;;24.47;38.45;99150.19;5033513;28;20030;-64
2021/07/22 09:10:19;;;;;;;7.13;5.38;;;;;;;24.38;37.81;99150.78;5029501;28;20041;-64
2021/07/22 09:12:52;;;;;;;9.15;5.82;;;;;;;24.50;37.36;99149.13;5027262;28;20042;-64
2021/07/22 09:15:35;;;;;;;6.85;5.07;;;;;;;24.06;38.94;99139.78;5027357;28;20131;-64
2021/07/22 09:18:28;;;;;;;10.13;5.93;;;;;;;24.18;38.41;99142.59;5028371;28;20033;-64
2021/07/22 09:20:54;;;;;;;6.90;5.28;;;;;;;24.61;37.18;99138.75;5031456;28;20368;-65
2021/07/22 09:23:23;;;;;;;6.20;5.20;;;;;;;24.28;37.25;99141.00;5028404;28;20073;-64
2021/07/22 09:25:49;;;;;;;5.47;4.97;;;;;;;23.89;37.45;99132.19;5028877;28;20026;-65
2021/07/22 09:28:18;;;;;;;8.77;5.60;;;;;;;24.00;37.78;99142.81;5030868;28;20057;-65
2021/07/22 09:31:00;;;;;;;5.75;5.13;;;;;;;24.68;36.78;99131.31;5027562;28;20092;-65
2021/07/22 09:33:44;;;;;;;7.55;4.68;;;;;;;24.94;35.96;99130.38;5027980;28;20461;-65
2021/07/22 09:36:18;;;;;;;6.17;5.60;;;;;;;25.09;35.98;99125.81;5026102;28;20044;-64
2021/07/22 09:38:44;;;;;;;6.25;5.15;;;;;;;25.15;35.96;99126.25;5032497;28;20283;-64
2021/07/22 09:41:20;;;;;;;5.18;4.75;;;;;;;24.94;35.35;99135.63;5027646;28;20029;-64
2021/07/22 09:43:46;;;;;;;7.68;6.35;;;;;;;25.28;34.81;99121.81;5029281;28;20033;-64
2021/07/22 09:46:11;;;;;;;6.30;4.90;;;;;;;25.67;34.37;99123.41;5023996;28;20442;-65
2021/07/22 09:48:37;;;;;;;5.70;5.13;;;;;;;25.97;34.50;99119.47;5034177;28;20038;-64
2021/07/22 09:51:03;;;;;;;18.25;7.35;;;;;;;26.18;33.98;99123.94;5027944;28;20037;-65
2021/07/22 09:53:29;;;;;;;6.60;5.90;;;;;;;25.35;34.38;99124.81;5028398;28;20141;-65
2021/07/22 09:55:56;;;;;;;8.00;6.00;;;;;;;25.24;35.74;99122.97;5024025;28;20077;-65
2021/07/22 09:58:22;;;;;;;6.47;5.65;;;;;;;25.41;34.89;99117.38;5021756;28;20306;-65
2021/07/22 10:00:49;;;;;;;10.43;5.95;;;;;;;25.73;35.19;99116.84;5027141;28;20033;-65
2021/07/22 10:03:16;;;;;;;6.68;5.55;;;;;;;26.17;35.47;99117.03;5028293;28;20454;-65
2021/07/22 10:05:48;;;;;;;8.45;5.43;;;;;;;26.64;35.80;99116.06;5028702;28;20574;-64
2021/07/22 10:08:18;;;;;;;5.97;5.47;;;;;;;27.22;35.24;99117.66;5028169;28;20033;-65
2021/07/22 10:10:50;;;;;;;6.57;5.70;;;;;;;27.47;33.33;99107.78;5028481;28;20326;-65
2021/07/22 10:13:16;;;;;;;5.88;5.38;;;;;;;27.27;32.57;99106.75;5023839;28;20057;-65
2021/07/22 10:15:43;;;;;;;6.82;6.13;;;;;;;26.35;34.39;99107.75;5031278;28;20402;-65
2021/07/22 10:18:09;;;;;;;8.02;6.93;;;;;;;26.77;34.56;99111.53;5030781;28;20436;-66
2021/07/22 10:20:35;;;;;;;7.45;6.22;;;;;;;26.77;33.23;99106.28;5030732;28;20045;-66
2021/07/22 10:23:01;;;;;;;8.98;5.90;;;;;;;26.75;34.28;99112.59;5026751;28;20041;-66
2021/07/22 10:25:28;;;;;;;9.23;5.97;;;;;;;26.41;33.19;99116.16;5034228;28;20376;-66
2021/07/22 10:27:55;;;;;;;5.60;5.10;;;;;;;26.33;33.86;99107.06;5027473;28;20087;-66
2021/07/22 10:30:22;;;;;;;7.82;5.50;;;;;;;26.30;33.84;99112.56;5025221;28;20438;-65
2021/07/22 10:32:59;;;;;;;6.57;5.68;;;;;;;26.43;33.93;99099.31;5027386;28;20026;-65
2021/07/22 10:35:28;;;;;;;8.10;6.45;;;;;;;26.26;34.41;99108.47;5025943;28;20163;-65
2021/07/22 10:38:09;;;;;;;7.53;6.88;;;;;;;26.72;33.23;99102.31;5029301;28;20400;-65
2021/07/22 10:40:51;;;;;;;13.60;6.68;;;;;;;26.51;33.11;99098.72;5024462;28;20041;-65
2021/07/22 10:43:42;;;;;;;6.93;6.22;;;;;;;26.51;33.34;99098.72;5029399;28;20024;-66
2021/07/22 10:46:13;;;;;;;6.07;5.20;;;;;;;26.87;33.36;99098.50;5026731;28;20033;-65
2021/07/22 10:48:40;;;;;;;8.07;6.43;;;;;;;26.56;34.00;99092.16;5026533;28;20102;-65
2021/07/22 10:51:12;;;;;;;10.40;6.40;;;;;;;26.77;33.03;99089.66;5025021;28;20287;-65
2021/07/22 10:53:53;;;;;;;7.13;6.53;;;;;;;26.91;33.12;99097.31;5029311;28;20328;-64
2021/07/22 10:56:37;;;;;;;5.43;4.93;;;;;;;26.84;33.42;99080.31;5026619;28;20029;-65
2021/07/22 10:59:03;;;;;;;6.72;6.03;;;;;;;26.92;33.20;99082.38;5029526;28;20090;-65
2021/07/22 11:01:43;;;;;;;8.63;5.93;;;;;;;26.98;32.57;99080.09;5025407;28;20386;-65
2021/07/22 11:04:09;;;;;;;6.18;5.68;;;;;;;26.76;33.31;99078.28;5027952;28;20646;-65
2021/07/22 11:07:01;;;;;;;7.97;5.93;;;;;;;26.45;33.88;99078.97;5025141;28;20034;-65
2021/07/22 11:09:49;;;;;;;6.25;5.65;;;;;;;26.50;34.79;99070.72;5028655;28;20025;-64
2021/07/22 11:12:33;;;;;;;6.55;6.05;;;;;;;26.63;34.90;99066.19;5028071;28;20446;-64
2021/07/22 11:15:02;;;;;;;6.57;5.97;;;;;;;26.98;33.13;99063.47;5027531;28;20025;-65
2021/07/22 11:17:33;;;;;;;7.43;5.95;;;;;;;26.83;34.09;99053.16;5026379;28;20275;-65
2021/07/22 11:20:20;;;;;;;7.15;5.65;;;;;;;27.28;33.59;99053.94;5029733;28;20424;-65
2021/07/22 11:22:47;;;;;;;6.95;6.00;;;;;;;26.87;33.09;99059.03;5026404;28;20133;-65
2021/07/22 11:25:13;;;;;;;7.43;5.50;;;;;;;26.59;33.03;99057.72;5028612;28;20033;-65
2021/07/22 11:27:59;;;;;;;6.85;5.93;;;;;;;26.34;33.58;99053.53;5027571;28;20048;-64
2021/07/22 11:30:25;;;;;;;6.53;5.93;;;;;;;26.25;34.33;99056.84;5026859;28;20025;-64
2021/07/22 11:32:50;;;;;;;6.43;5.82;;;;;;;26.54;33.19;99059.88;5028150;28;20071;-65